Évreux, France

10:47 CEST le 18 avril 2015 (GMT +0200)
Fauville Air Base | | Change Station
CLOSE
Current Station
Aéroport
Location: Evreux,
Altitude: 453 ft
Stations météo à proximité

Alt. 453 ft 49.03 °N, 1.22 °E | Updated 17 minutes ago

Clear
Ciel dégagé
50 ° F
Paraît 50 ° F
N
16
Vent Variable Vent de ENE

Aujourd'hui
Haut(e) -- | Bas -- ° F
--% Risque de précip.
Hier
Haut(e) -- | Bas -- ° F
Precip. -- pouce
6:58 AM 8:51 PM
Lune descendante, 0% visible
Pression 30.18 pouce
Visibilité 6.2 Miles terrestres
Nuages
Point de rosée 36 ° F
Humidité 58%
Précipitations 0.00 pouce
Profondeur de la couche neigeuse Non disponible.
UV Non disponible.
Pollen Non disponible.
Qualité de l'air Non disponible.
Flu Activity Non disponible.
METAR LFOE 180830Z AUTO 07014KT 9999 NSC 10/02 Q1022

More Conditions Fewer Conditions

Pression 30.18 pouce
Visibilité 6.2 Miles terrestres
Nuages
Point de rosée 36 ° F
Humidité 58%
Précipitations 0.00 pouce
Profondeur de la couche neigeuse Non disponible.
UV Non disponible.
Pollen Non disponible.
Qualité de l'air Non disponible.
Flu Activity Non disponible.
METAR LFOE 180830Z AUTO 07014KT 9999 NSC 10/02 Q1022

More Conditions Fewer Conditions

10-Day Weather Forecast

Almanac

Astronomie

Apr. 18, 2015 Lever Coucher
Temps réel
Crépuscule civil
Crépuscule nautique
Crépuscule astronomique
Lune
Durée de lumière visible
Longueur du jour
Tomorrow will be .
, % of the Moon is Illuminated

Extrêmes aujourd'hui

Country Highs Country Lows

Community

WunderPhotos

Upload Photos

1,814,345 Photos téléchargées !

WunderBlogs® & News

Nearby

Qualité de l'air

  Qualité de l'air Indice de la qualité de l'air Polluant
Not available.

Épaisseur de neige

Station Depth Altitude

Activité sismique

Ville Distance Mag. Time & Date
Minimum magnitude displayed is 2.5.

Températures des eaux côtières

Lieu Température

Stations

Stations météo à proximité

Emplacement de la station Température Refroidissement éolien Point de rosée Humidité Vent Precip. Alt. Mise à jour Type